Time;durP1;ratioP1;P1;durP2;ratioP2;P2;SDS_P1;SDS_P2;PMS_P1;PMS_P2;Temp;Humidity;BMP_temperature;BMP_pressure;BME280_temperature;BME280_humidity;BME280_pressure;Samples;Min_cycle;Max_cycle;Signal;HPM_P1;HPM_P2
2022/02/18 00:00:39;;;;;;;8.60;2.80;;;;;;;;;;5045958;28;20485;-81
2022/02/18 00:03:06;;;;;;;12.37;3.67;;;;;;;;;;5045807;28;20493;-82
2022/02/18 00:05:33;;;;;;;8.87;2.60;;;;;;;;;;5047224;28;20480;-80
2022/02/18 00:08:00;;;;;;;9.57;2.93;;;;;;;;;;5047593;28;20537;-82
2022/02/18 00:10:27;;;;;;;8.07;2.70;;;;;;;;;;5047641;28;20441;-82
2022/02/18 00:12:54;;;;;;;14.43;3.60;;;;;;;;;;5047222;28;20533;-80
2022/02/18 00:15:22;;;;;;;6.73;2.33;;;;;;;;;;5045022;28;20492;-80
2022/02/18 00:17:50;;;;;;;18.80;3.67;;;;;;;;;;5046261;28;20461;-82
2022/02/18 00:20:17;;;;;;;9.73;2.67;;;;;;;;;;5045928;28;20700;-81
2022/02/18 00:22:44;;;;;;;11.80;3.20;;;;;;;;;;5045887;28;20509;-81
2022/02/18 00:25:11;;;;;;;7.27;2.87;;;;;;;;;;5043017;28;20893;-79
2022/02/18 00:27:38;;;;;;;11.20;3.10;;;;;;;;;;5044552;28;20481;-79
2022/02/18 00:30:06;;;;;;;16.20;4.33;;;;;;;;;;5045730;28;20458;-82
2022/02/18 00:32:35;;;;;;;14.07;4.30;;;;;;;;;;5045159;28;20454;-80
2022/02/18 00:35:02;;;;;;;17.97;4.70;;;;;;;;;;5046086;28;20532;-81
2022/02/18 00:37:29;;;;;;;12.53;3.80;;;;;;;;;;5046373;28;20472;-81
2022/02/18 00:39:57;;;;;;;13.63;4.07;;;;;;;;;;5045812;28;20445;-80
2022/02/18 00:42:24;;;;;;;13.00;4.50;;;;;;;;;;5047397;28;20528;-80
2022/02/18 00:44:51;;;;;;;12.53;4.07;;;;;;;;;;5046821;28;20452;-82
2022/02/18 00:47:19;;;;;;;12.13;4.03;;;;;;;;;;5046594;28;20904;-81
2022/02/18 00:49:47;;;;;;;17.63;4.30;;;;;;;;;;5046361;28;20486;-82
2022/02/18 00:52:15;;;;;;;14.20;4.60;;;;;;;;;;5045983;28;20446;-81
2022/02/18 00:54:42;;;;;;;16.13;4.43;;;;;;;;;;5046039;28;20453;-81
2022/02/18 00:57:10;;;;;;;10.47;4.40;;;;;;;;;;5046422;28;20477;-81
2022/02/18 00:59:37;;;;;;;14.03;4.57;;;;;;;;;;5047074;28;20445;-81
2022/02/18 01:02:04;;;;;;;9.73;4.10;;;;;;;;;;5045200;28;20445;-81
2022/02/18 01:04:31;;;;;;;15.43;4.67;;;;;;;;;;5037565;28;20469;-81
2022/02/18 01:07:00;;;;;;;14.20;3.80;;;;;;;;;;5038811;28;20481;-81
2022/02/18 01:09:27;;;;;;;12.40;3.70;;;;;;;;;;5038528;28;20453;-81
2022/02/18 01:11:54;;;;;;;13.57;4.40;;;;;;;;;;5038516;28;20923;-80
2022/02/18 01:14:21;;;;;;;23.73;4.63;;;;;;;;;;5037527;28;21039;-81
2022/02/18 01:16:48;;;;;;;11.17;3.50;;;;;;;;;;5038194;28;20481;-81
2022/02/18 01:19:16;;;;;;;13.53;4.10;;;;;;;;;;5050815;28;20888;-80
2022/02/18 01:21:43;;;;;;;15.70;4.57;;;;;;;;;;5045176;28;20513;-81
2022/02/18 01:24:11;;;;;;;15.67;3.50;;;;;;;;;;5038150;28;20483;-80
2022/02/18 01:26:38;;;;;;;16.27;3.60;;;;;;;;;;5037796;28;20469;-81
2022/02/18 01:29:06;;;;;;;18.70;6.13;;;;;;;;;;5038238;28;20462;-80
2022/02/18 01:31:33;;;;;;;18.77;5.17;;;;;;;;;;5038200;28;20539;-81
2022/02/18 01:34:00;;;;;;;9.57;3.30;;;;;;;;;;5037007;28;21217;-81
2022/02/18 01:36:27;;;;;;;16.47;4.27;;;;;;;;;;5038535;28;20511;-81
2022/02/18 01:38:54;;;;;;;13.87;3.90;;;;;;;;;;5035857;28;20532;-82
2022/02/18 01:41:23;;;;;;;13.50;3.33;;;;;;;;;;5037752;28;20544;-80
2022/02/18 01:43:51;;;;;;;11.17;3.40;;;;;;;;;;5038023;28;20485;-79
2022/02/18 01:46:18;;;;;;;11.93;3.70;;;;;;;;;;5037379;28;20852;-81
2022/02/18 01:48:45;;;;;;;20.80;4.17;;;;;;;;;;5038490;28;20458;-81
2022/02/18 01:51:12;;;;;;;12.27;3.80;;;;;;;;;;5038014;28;20941;-81
2022/02/18 01:53:40;;;;;;;18.90;4.63;;;;;;;;;;5037629;28;20447;-81
2022/02/18 01:56:07;;;;;;;22.20;5.40;;;;;;;;;;5020898;28;20490;-81
2022/02/18 01:58:36;;;;;;;19.13;4.53;;;;;;;;;;5020564;28;20461;-81
2022/02/18 02:01:04;;;;;;;20.80;4.87;;;;;;;;;;5037936;28;20464;-81
2022/02/18 02:03:31;;;;;;;13.67;3.80;;;;;;;;;;5037128;28;21027;-82
2022/02/18 02:05:59;;;;;;;18.63;4.70;;;;;;;;;;5038179;28;20483;-81
2022/02/18 02:08:28;;;;;;;11.90;3.57;;;;;;;;;;5038104;28;20553;-80
2022/02/18 02:10:56;;;;;;;18.63;4.53;;;;;;;;;;5019518;28;20827;-81
2022/02/18 02:13:30;;;;;;;11.67;3.17;;;;;;;;;;5029609;28;20511;-81
2022/02/18 02:15:59;;;;;;;18.53;3.80;;;;;;;;;;5037950;28;20862;-81
2022/02/18 02:18:26;;;;;;;16.07;3.90;;;;;;;;;;5037738;28;20451;-82
2022/02/18 02:20:53;;;;;;;19.50;4.43;;;;;;;;;;5037393;28;20451;-81
2022/02/18 02:23:22;;;;;;;18.70;3.97;;;;;;;;;;5035306;28;20496;-80
2022/02/18 02:25:49;;;;;;;9.60;2.93;;;;;;;;;;5036781;28;21065;-81
2022/02/18 02:28:16;;;;;;;14.90;3.37;;;;;;;;;;5035632;28;20457;-81
2022/02/18 02:30:43;;;;;;;21.40;3.47;;;;;;;;;;5037450;28;20512;-81
2022/02/18 02:33:10;;;;;;;10.17;3.27;;;;;;;;;;5016973;28;20528;-82
2022/02/18 02:35:37;;;;;;;20.23;3.77;;;;;;;;;;5018249;28;20473;-81
2022/02/18 02:38:05;;;;;;;12.90;3.20;;;;;;;;;;5036480;28;20959;-81
2022/02/18 02:40:33;;;;;;;17.00;4.43;;;;;;;;;;5034883;28;21018;-80
2022/02/18 02:43:00;;;;;;;9.60;3.20;;;;;;;;;;5036187;28;20481;-79
2022/02/18 02:45:27;;;;;;;13.20;3.43;;;;;;;;;;5035673;28;20474;-81
2022/02/18 02:47:55;;;;;;;23.97;4.70;;;;;;;;;;5037876;28;20454;-82
2022/02/18 02:50:22;;;;;;;11.80;3.37;;;;;;;;;;5037192;28;20452;-81
2022/02/18 02:52:49;;;;;;;9.90;3.00;;;;;;;;;;5036994;28;20454;-81
2022/02/18 02:55:16;;;;;;;10.23;3.73;;;;;;;;;;5036362;28;20464;-81
2022/02/18 02:57:45;;;;;;;19.77;4.60;;;;;;;;;;5037994;28;20460;-81
2022/02/18 03:00:12;;;;;;;10.03;2.77;;;;;;;;;;5036034;28;20457;-81
2022/02/18 03:02:40;;;;;;;11.80;3.13;;;;;;;;;;5034962;28;20453;-82
2022/02/18 03:05:07;;;;;;;14.90;3.73;;;;;;;;;;5039650;28;20529;-81
2022/02/18 03:07:34;;;;;;;10.27;3.30;;;;;;;;;;5041500;28;20446;-81
2022/02/18 03:10:02;;;;;;;13.80;3.40;;;;;;;;;;5029881;28;20473;-81
2022/02/18 03:12:29;;;;;;;18.07;3.67;;;;;;;;;;5038477;28;20959;-81
2022/02/18 03:14:58;;;;;;;20.93;4.17;;;;;;;;;;5040291;28;20469;-81
2022/02/18 03:17:25;;;;;;;16.70;3.20;;;;;;;;;;5040741;28;20463;-81
2022/02/18 03:19:52;;;;;;;22.60;3.93;;;;;;;;;;5041532;28;20449;-81
2022/02/18 03:22:19;;;;;;;20.73;3.47;;;;;;;;;;5041043;28;20469;-81
2022/02/18 03:24:47;;;;;;;18.50;4.27;;;;;;;;;;5034112;28;20491;-82
2022/02/18 03:27:14;;;;;;;11.07;2.83;;;;;;;;;;5041092;28;20473;-81
2022/02/18 03:29:41;;;;;;;15.13;3.63;;;;;;;;;;5040346;28;20457;-82
2022/02/18 03:32:10;;;;;;;11.43;3.20;;;;;;;;;;5041212;28;20453;-80
2022/02/18 03:34:37;;;;;;;10.03;2.60;;;;;;;;;;5038765;28;20449;-82
2022/02/18 03:37:04;;;;;;;18.33;3.70;;;;;;;;;;5041227;28;20554;-81
2022/02/18 03:39:31;;;;;;;11.90;2.67;;;;;;;;;;5036555;28;20972;-82
2022/02/18 03:41:59;;;;;;;14.53;4.10;;;;;;;;;;5024598;28;20515;-82
2022/02/18 03:44:26;;;;;;;17.87;3.30;;;;;;;;;;5039831;28;20573;-82
2022/02/18 03:46:53;;;;;;;15.07;3.87;;;;;;;;;;5041029;28;20495;-82
2022/02/18 03:49:21;;;;;;;14.93;3.70;;;;;;;;;;5040385;28;20449;-82
2022/02/18 03:51:48;;;;;;;13.10;3.10;;;;;;;;;;5040170;28;20465;-81
2022/02/18 03:54:15;;;;;;;22.93;4.10;;;;;;;;;;5039204;28;20455;-81
2022/02/18 03:56:42;;;;;;;20.53;3.93;;;;;;;;;;5039358;28;20477;-80
2022/02/18 03:59:09;;;;;;;19.37;4.03;;;;;;;;;;5040939;28;20445;-81
2022/02/18 04:01:36;;;;;;;17.77;3.83;;;;;;;;;;5040107;28;20441;-80
2022/02/18 04:04:04;;;;;;;14.63;3.57;;;;;;;;;;5038814;28;20491;-80
2022/02/18 04:06:32;;;;;;;25.47;4.20;;;;;;;;;;5040783;28;20466;-81
2022/02/18 04:08:59;;;;;;;15.83;3.73;;;;;;;;;;5040370;28;20450;-81
2022/02/18 04:11:26;;;;;;;28.17;4.83;;;;;;;;;;5039801;28;20477;-81
2022/02/18 04:13:53;;;;;;;16.20;4.33;;;;;;;;;;5038738;28;20457;-83
2022/02/18 04:16:23;;;;;;;16.07;4.60;;;;;;;;;;5039893;28;20473;-80
2022/02/18 04:18:51;;;;;;;16.10;4.37;;;;;;;;;;5040384;28;20543;-80
2022/02/18 04:21:18;;;;;;;18.93;4.03;;;;;;;;;;5039213;28;20446;-78
2022/02/18 04:23:46;;;;;;;16.23;4.13;;;;;;;;;;5038776;28;20487;-81
2022/02/18 04:26:13;;;;;;;19.60;4.13;;;;;;;;;;5039501;28;20484;-82
2022/02/18 04:28:40;;;;;;;20.63;5.03;;;;;;;;;;5039371;28;20452;-82
2022/02/18 04:31:08;;;;;;;21.53;4.60;;;;;;;;;;5019956;28;20449;-82
2022/02/18 04:33:35;;;;;;;14.47;4.50;;;;;;;;;;5036431;28;20468;-82
2022/02/18 04:36:02;;;;;;;17.97;3.87;;;;;;;;;;5039773;28;20497;-82
2022/02/18 04:38:30;;;;;;;16.60;3.90;;;;;;;;;;5039296;28;20461;-83
2022/02/18 04:40:59;;;;;;;18.10;3.70;;;;;;;;;;5038738;28;20472;-82
2022/02/18 04:43:26;;;;;;;15.37;4.20;;;;;;;;;;5038180;28;20477;-82
2022/02/18 04:45:53;;;;;;;13.40;4.07;;;;;;;;;;5034011;28;20504;-83
2022/02/18 04:48:21;;;;;;;20.70;4.23;;;;;;;;;;5034997;28;20457;-80
2022/02/18 04:50:48;;;;;;;17.03;4.00;;;;;;;;;;5038932;28;20451;-79
2022/02/18 04:53:15;;;;;;;4.80;1.33;;;;;;;;;;5039465;28;20458;-84
2022/02/18 04:55:42;;;;;;;9.70;2.87;;;;;;;;;;5039369;28;20503;-83
2022/02/18 04:58:11;;;;;;;15.33;4.13;;;;;;;;;;5039646;28;20461;-81
2022/02/18 05:00:38;;;;;;;14.53;3.63;;;;;;;;;;5043274;28;20481;-81
2022/02/18 05:03:05;;;;;;;12.33;3.50;;;;;;;;;;5041344;28;20492;-82
2022/02/18 05:05:32;;;;;;;13.57;3.10;;;;;;;;;;5042931;28;20479;-81
2022/02/18 05:07:59;;;;;;;18.23;3.10;;;;;;;;;;5041471;28;20466;-81
2022/02/18 05:10:26;;;;;;;14.10;3.50;;;;;;;;;;5041177;28;20466;-82
2022/02/18 05:12:53;;;;;;;14.90;3.13;;;;;;;;;;5041809;28;20472;-81
2022/02/18 05:15:22;;;;;;;8.80;2.80;;;;;;;;;;5041335;28;20469;-81
2022/02/18 05:17:49;;;;;;;13.70;3.00;;;;;;;;;;5041347;28;20435;-81
2022/02/18 05:20:16;;;;;;;18.13;3.70;;;;;;;;;;5023073;28;20528;-82
2022/02/18 05:22:44;;;;;;;15.17;3.10;;;;;;;;;;5031240;28;20883;-80
2022/02/18 05:25:11;;;;;;;9.23;3.33;;;;;;;;;;5040270;28;20485;-81
2022/02/18 05:27:38;;;;;;;8.87;4.20;;;;;;;;;;5040756;28;20909;-81
2022/02/18 05:30:06;;;;;;;18.90;3.87;;;;;;;;;;5041005;28;20451;-82
2022/02/18 05:32:34;;;;;;;18.87;4.40;;;;;;;;;;5041172;28;20453;-81
2022/02/18 05:35:02;;;;;;;11.30;3.30;;;;;;;;;;5040855;28;20447;-81
2022/02/18 05:37:29;;;;;;;11.73;3.23;;;;;;;;;;5041583;28;20462;-81
2022/02/18 05:39:56;;;;;;;11.33;3.23;;;;;;;;;;5041846;28;20452;-81
2022/02/18 05:42:23;;;;;;;13.70;3.23;;;;;;;;;;5041455;28;20985;-81
2022/02/18 05:44:50;;;;;;;13.20;3.20;;;;;;;;;;5041233;28;20508;-82
2022/02/18 05:47:17;;;;;;;10.63;3.70;;;;;;;;;;5037595;28;20545;-82
2022/02/18 05:49:45;;;;;;;10.03;3.43;;;;;;;;;;5042431;28;20452;-79
2022/02/18 05:52:13;;;;;;;11.63;3.00;;;;;;;;;;5036334;28;20459;-80
2022/02/18 05:54:41;;;;;;;14.03;3.47;;;;;;;;;;5042547;28;20492;-80
2022/02/18 05:57:08;;;;;;;15.93;4.07;;;;;;;;;;5042492;28;20474;-81
2022/02/18 05:59:35;;;;;;;9.77;3.23;;;;;;;;;;5041226;28;20474;-80
2022/02/18 06:02:03;;;;;;;12.90;3.07;;;;;;;;;;5043442;28;20459;-80
2022/02/18 06:04:30;;;;;;;10.40;3.23;;;;;;;;;;5039804;28;20491;-82
2022/02/18 06:06:58;;;;;;;8.73;3.20;;;;;;;;;;5043528;28;20470;-81
2022/02/18 06:09:25;;;;;;;8.47;2.70;;;;;;;;;;5040468;28;20454;-81
2022/02/18 06:11:52;;;;;;;17.70;3.27;;;;;;;;;;5034572;28;20488;-80
2022/02/18 06:14:19;;;;;;;14.63;2.90;;;;;;;;;;5033004;28;20519;-80
2022/02/18 06:16:47;;;;;;;12.73;3.20;;;;;;;;;;5041142;28;20484;-79
2022/02/18 06:19:14;;;;;;;14.63;3.67;;;;;;;;;;5041724;28;20445;-80
2022/02/18 06:21:41;;;;;;;14.93;3.23;;;;;;;;;;5039854;28;20451;-80
2022/02/18 06:24:09;;;;;;;21.10;4.20;;;;;;;;;;5036901;28;20559;-80
2022/02/18 06:26:37;;;;;;;17.97;3.03;;;;;;;;;;5037534;28;20465;-81
2022/02/18 06:29:04;;;;;;;7.97;2.20;;;;;;;;;;5038615;28;20451;-79
2022/02/18 06:31:31;;;;;;;14.80;4.10;;;;;;;;;;5037462;28;20451;-77
2022/02/18 06:33:58;;;;;;;9.03;3.07;;;;;;;;;;5036205;28;20451;-80
2022/02/18 06:36:25;;;;;;;11.57;2.50;;;;;;;;;;5036619;28;20913;-80
2022/02/18 06:38:52;;;;;;;10.93;2.33;;;;;;;;;;5036040;28;20494;-79
2022/02/18 06:41:21;;;;;;;12.07;3.07;;;;;;;;;;5035756;28;20523;-78
2022/02/18 06:43:49;;;;;;;6.10;2.50;;;;;;;;;;5037261;28;20829;-81
2022/02/18 06:46:16;;;;;;;7.60;2.33;;;;;;;;;;5038093;28;20506;-81
2022/02/18 06:48:43;;;;;;;10.10;2.80;;;;;;;;;;5038114;28;20455;-78
2022/02/18 06:51:10;;;;;;;24.27;4.53;;;;;;;;;;5018606;28;20540;-80
2022/02/18 06:53:37;;;;;;;14.90;3.33;;;;;;;;;;5017871;28;20450;-79
2022/02/18 06:56:05;;;;;;;11.23;2.40;;;;;;;;;;5038327;28;20473;-79
2022/02/18 06:58:34;;;;;;;11.83;3.30;;;;;;;;;;5037745;28;20466;-80
2022/02/18 07:01:01;;;;;;;12.33;3.03;;;;;;;;;;5038966;28;20449;-81
2022/02/18 07:03:28;;;;;;;14.53;2.70;;;;;;;;;;5037663;28;20455;-81
2022/02/18 07:05:57;;;;;;;14.67;3.10;;;;;;;;;;5038320;28;20851;-79
2022/02/18 07:08:24;;;;;;;11.40;3.17;;;;;;;;;;5037712;28;20986;-80
2022/02/18 07:10:51;;;;;;;12.50;3.40;;;;;;;;;;5038819;28;20459;-80
2022/02/18 07:13:19;;;;;;;11.93;4.70;;;;;;;;;;5036539;28;21196;-79
2022/02/18 07:15:48;;;;;;;10.77;3.33;;;;;;;;;;5031444;28;20569;-79
2022/02/18 07:18:16;;;;;;;18.50;3.50;;;;;;;;;;5037234;28;20450;-79
2022/02/18 07:20:43;;;;;;;15.53;3.73;;;;;;;;;;5036351;28;20469;-80
2022/02/18 07:23:10;;;;;;;15.80;3.27;;;;;;;;;;5035723;28;20552;-79
2022/02/18 07:25:37;;;;;;;15.60;2.70;;;;;;;;;;5037294;28;20588;-78
2022/02/18 07:28:05;;;;;;;10.23;3.07;;;;;;;;;;5038132;28;20831;-81
2022/02/18 07:30:32;;;;;;;11.93;3.20;;;;;;;;;;5039353;28;20477;-79
2022/02/18 07:33:01;;;;;;;18.23;3.27;;;;;;;;;;5038076;28;20461;-81
2022/02/18 07:35:32;;;;;;;18.93;3.90;;;;;;;;;;5039283;28;20480;-79
2022/02/18 07:38:00;;;;;;;10.90;2.97;;;;;;;;;;5039220;28;20544;-79
2022/02/18 07:40:27;;;;;;;16.70;3.50;;;;;;;;;;5040621;28;21185;-78
2022/02/18 07:42:54;;;;;;;14.80;4.90;;;;;;;;;;5049751;28;20457;-79
2022/02/18 07:45:21;;;;;;;18.80;3.50;;;;;;;;;;5055184;28;20485;-78
2022/02/18 07:47:55;;;;;;;16.17;3.20;;;;;;;;;;5036161;28;20499;-79
2022/02/18 07:50:24;;;;;;;15.17;2.60;;;;;;;;;;5038275;28;21076;-79
2022/02/18 07:52:53;;;;;;;10.37;4.10;;;;;;;;;;5040411;28;20468;-78
2022/02/18 07:55:20;;;;;;;15.20;4.17;;;;;;;;;;5041650;28;20525;-79
2022/02/18 07:57:47;;;;;;;13.47;3.80;;;;;;;;;;5041596;28;20456;-78
2022/02/18 08:00:15;;;;;;;14.57;3.17;;;;;;;;;;5040529;28;20886;-78
2022/02/18 08:02:42;;;;;;;18.63;3.80;;;;;;;;;;5038231;28;20444;-78
2022/02/18 08:05:10;;;;;;;16.93;4.00;;;;;;;;;;5039080;28;20484;-79
2022/02/18 08:07:38;;;;;;;19.57;4.27;;;;;;;;;;5041085;28;20965;-79
2022/02/18 08:10:06;;;;;;;14.50;3.17;;;;;;;;;;5038218;28;20452;-79
2022/02/18 08:12:34;;;;;;;17.27;2.97;;;;;;;;;;5049616;28;20480;-78
2022/02/18 08:15:01;;;;;;;16.87;3.87;;;;;;;;;;5042553;28;20543;-79
2022/02/18 08:17:34;;;;;;;10.60;3.17;;;;;;;;;;5046842;28;20834;-78
2022/02/18 08:20:01;;;;;;;20.60;3.43;;;;;;;;;;5043607;28;20468;-79
2022/02/18 08:22:28;;;;;;;20.80;3.70;;;;;;;;;;5047772;28;20458;-79
2022/02/18 08:24:56;;;;;;;14.50;2.73;;;;;;;;;;5051587;28;20478;-78
2022/02/18 08:27:24;;;;;;;18.00;4.33;;;;;;;;;;5053632;28;20540;-81
2022/02/18 08:29:51;;;;;;;7.43;2.50;;;;;;;;;;5042373;28;20476;-78
2022/02/18 08:32:18;;;;;;;14.07;3.10;;;;;;;;;;5038386;28;20502;-78
2022/02/18 08:34:45;;;;;;;14.20;3.97;;;;;;;;;;5034069;28;20447;-79
2022/02/18 08:37:13;;;;;;;9.73;3.13;;;;;;;;;;5038204;28;20847;-79
2022/02/18 08:39:41;;;;;;;11.67;3.07;;;;;;;;;;5034171;28;20470;-78
2022/02/18 08:42:11;;;;;;;12.20;3.70;;;;;;;;;;5042341;28;20465;-80
2022/02/18 08:44:38;;;;;;;19.27;3.63;;;;;;;;;;5055482;28;20588;-80
2022/02/18 08:47:06;;;;;;;19.40;3.47;;;;;;;;;;5043385;28;20469;-79
2022/02/18 08:49:33;;;;;;;9.10;2.60;;;;;;;;;;5038837;28;20454;-79
2022/02/18 08:52:00;;;;;;;10.70;2.80;;;;;;;;;;5042320;28;20900;-79
2022/02/18 08:54:28;;;;;;;17.33;3.13;;;;;;;;;;5040656;28;20453;-81
2022/02/18 08:56:55;;;;;;;11.33;2.70;;;;;;;;;;5040074;28;20466;-80
2022/02/18 08:59:24;;;;;;;11.93;3.00;;;;;;;;;;5038367;28;20470;-79
2022/02/18 09:01:59;;;;;;;14.87;3.20;;;;;;;;;;5038059;28;20455;-79
2022/02/18 09:04:27;;;;;;;17.50;2.70;;;;;;;;;;5039121;28;20452;-79
2022/02/18 09:06:54;;;;;;;11.57;3.03;;;;;;;;;;5041346;28;20475;-80
2022/02/18 09:09:22;;;;;;;12.57;2.90;;;;;;;;;;5029290;28;20463;-79
2022/02/18 09:11:50;;;;;;;12.37;2.77;;;;;;;;;;5035854;28;20453;-79
2022/02/18 09:14:17;;;;;;;9.77;2.70;;;;;;;;;;5044378;28;20461;-79
2022/02/18 09:16:45;;;;;;;11.80;2.67;;;;;;;;;;5035387;28;20474;-79
2022/02/18 09:19:13;;;;;;;9.03;3.07;;;;;;;;;;5040652;28;20445;-80
2022/02/18 09:21:40;;;;;;;6.77;3.30;;;;;;;;;;5055792;28;20453;-79
2022/02/18 09:24:07;;;;;;;9.17;3.20;;;;;;;;;;5046312;28;20835;-78
2022/02/18 09:26:34;;;;;;;10.47;2.20;;;;;;;;;;5039688;28;20492;-80
2022/02/18 09:29:02;;;;;;;11.07;2.57;;;;;;;;;;5036996;28;20469;-78
2022/02/18 09:31:29;;;;;;;6.73;2.37;;;;;;;;;;5038154;28;20826;-79
2022/02/18 09:33:57;;;;;;;7.60;2.23;;;;;;;;;;5035999;28;21039;-80
2022/02/18 09:36:25;;;;;;;8.83;2.37;;;;;;;;;;5038196;28;20470;-78
2022/02/18 09:38:52;;;;;;;8.50;2.27;;;;;;;;;;5038638;28;20479;-78
2022/02/18 09:41:19;;;;;;;19.33;2.40;;;;;;;;;;5047688;28;20457;-79
2022/02/18 09:43:48;;;;;;;10.20;2.30;;;;;;;;;;5036535;28;20463;-80
2022/02/18 09:46:15;;;;;;;7.37;1.73;;;;;;;;;;5039754;28;20501;-80
2022/02/18 09:48:42;;;;;;;6.13;2.07;;;;;;;;;;5049174;28;20454;-79
2022/02/18 09:51:11;;;;;;;11.00;1.80;;;;;;;;;;5055096;28;20529;-81
2022/02/18 09:53:38;;;;;;;6.73;2.17;;;;;;;;;;5040751;28;20532;-80
2022/02/18 09:56:08;;;;;;;7.73;2.37;;;;;;;;;;5038614;28;20485;-81
2022/02/18 09:58:36;;;;;;;10.33;2.87;;;;;;;;;;5038237;28;20489;-82
2022/02/18 10:01:04;;;;;;;4.43;1.87;;;;;;;;;;5035930;28;20458;-82
2022/02/18 10:03:34;;;;;;;4.97;2.23;;;;;;;;;;5035925;28;20554;-82
2022/02/18 10:06:05;;;;;;;6.43;2.00;;;;;;;;;;5054960;22;20885;-83
2022/02/18 10:08:35;;;;;;;4.47;1.83;;;;;;;;;;5071239;28;20460;-81
2022/02/18 10:11:12;;;;;;;7.00;1.97;;;;;;;;;;5073011;28;20555;-81
2022/02/18 10:13:41;;;;;;;5.87;2.33;;;;;;;;;;5068644;28;20453;-80
2022/02/18 10:16:21;;;;;;;5.00;1.90;;;;;;;;;;5073251;28;20860;-82
2022/02/18 10:18:58;;;;;;;5.93;2.53;;;;;;;;;;5073690;28;20526;-82
2022/02/18 10:21:31;;;;;;;4.63;1.53;;;;;;;;;;5074263;28;20458;-81
2022/02/18 10:24:17;;;;;;;4.20;1.80;;;;;;;;;;5069766;28;20493;-80
2022/02/18 10:26:48;;;;;;;6.67;1.37;;;;;;;;;;5079513;28;20492;-82
2022/02/18 10:29:25;;;;;;;7.13;1.90;;;;;;;;;;5079279;28;20449;-80
2022/02/18 10:32:08;;;;;;;5.03;1.50;;;;;;;;;;5078809;28;20445;-80
2022/02/18 10:34:54;;;;;;;5.33;1.77;;;;;;;;;;5078707;28;20475;-80
2022/02/18 10:37:21;;;;;;;6.77;1.90;;;;;;;;;;5079465;28;20898;-81
2022/02/18 10:40:08;;;;;;;5.17;1.57;;;;;;;;;;5078661;28;20532;-80
2022/02/18 10:42:35;;;;;;;4.50;1.73;;;;;;;;;;5076460;28;20523;-81
2022/02/18 10:45:12;;;;;;;8.33;1.57;;;;;;;;;;5081227;28;20454;-80
2022/02/18 10:47:40;;;;;;;3.70;1.40;;;;;;;;;;5079280;28;20994;-81
2022/02/18 10:50:18;;;;;;;7.10;1.47;;;;;;;;;;5075977;28;20945;-81
2022/02/18 10:53:09;;;;;;;6.17;1.60;;;;;;;;;;5066018;28;20557;-82
2022/02/18 10:55:51;;;;;;;5.60;2.87;;;;;;;;;;5069439;28;20495;-80
2022/02/18 10:58:22;;;;;;;5.63;1.57;;;;;;;;;;5075205;28;20558;-81
2022/02/18 11:01:02;;;;;;;2.40;1.30;;;;;;;;;;5075098;28;21017;-80
2022/02/18 11:03:29;;;;;;;4.50;1.10;;;;;;;;;;5074902;28;20456;-80
2022/02/18 11:05:56;;;;;;;5.60;1.53;;;;;;;;;;5065383;28;20491;-80
2022/02/18 11:08:32;;;;;;;3.27;1.23;;;;;;;;;;5076858;28;20457;-79
2022/02/18 11:11:09;;;;;;;3.10;1.53;;;;;;;;;;5073443;28;20500;-79
2022/02/18 11:13:37;;;;;;;3.90;1.30;;;;;;;;;;5079077;28;20457;-80
2022/02/18 11:16:04;;;;;;;3.40;1.30;;;;;;;;;;5079449;28;20805;-80
2022/02/18 11:18:32;;;;;;;4.87;1.80;;;;;;;;;;5077398;28;20457;-80
2022/02/18 11:21:02;;;;;;;5.37;1.27;;;;;;;;;;5074358;28;21046;-79
2022/02/18 11:23:29;;;;;;;4.53;1.87;;;;;;;;;;5074633;28;20544;-80
2022/02/18 11:25:58;;;;;;;3.90;1.70;;;;;;;;;;5077348;28;20490;-80
2022/02/18 11:28:31;;;;;;;2.23;0.83;;;;;;;;;;5081299;28;20460;-81
2022/02/18 11:31:11;;;;;;;5.13;1.10;;;;;;;;;;5081961;28;20462;-81
2022/02/18 11:33:49;;;;;;;2.93;1.40;;;;;;;;;;5081244;28;20484;-80
2022/02/18 11:36:24;;;;;;;2.83;1.13;;;;;;;;;;5084967;28;20465;-79
2022/02/18 11:38:55;;;;;;;4.47;1.40;;;;;;;;;;5084427;28;20458;-79
2022/02/18 11:41:36;;;;;;;3.20;1.20;;;;;;;;;;5082677;28;20468;-80
2022/02/18 11:44:07;;;;;;;3.90;1.17;;;;;;;;;;5069568;28;20485;-81
2022/02/18 11:46:34;;;;;;;2.50;1.00;;;;;;;;;;5082729;28;20490;-80
2022/02/18 11:49:01;;;;;;;3.50;0.90;;;;;;;;;;5085037;28;20455;-79
2022/02/18 11:51:40;;;;;;;4.53;1.00;;;;;;;;;;5087160;28;20470;-80
2022/02/18 11:54:24;;;;;;;2.40;1.20;;;;;;;;;;5067004;28;20462;-79
2022/02/18 11:56:53;;;;;;;2.00;0.90;;;;;;;;;;5073694;28;20477;-80
2022/02/18 11:59:22;;;;;;;2.07;0.97;;;;;;;;;;5081464;28;20994;-80
2022/02/18 12:02:03;;;;;;;3.63;1.33;;;;;;;;;;5078019;28;20456;-80
2022/02/18 12:04:30;;;;;;;2.03;0.87;;;;;;;;;;5078996;28;20452;-79
2022/02/18 12:07:23;;;;;;;2.00;0.90;;;;;;;;;;5084297;28;20488;-80
2022/02/18 12:10:07;;;;;;;7.83;1.40;;;;;;;;;;5056225;28;20840;-80
2022/02/18 12:12:35;;;;;;;2.30;1.10;;;;;;;;;;5088959;28;20456;-80
2022/02/18 12:15:11;;;;;;;3.23;1.10;;;;;;;;;;5089300;28;20435;-81
2022/02/18 12:17:39;;;;;;;1.97;1.00;;;;;;;;;;5082873;28;20435;-80
2022/02/18 12:20:26;;;;;;;2.90;1.10;;;;;;;;;;5080897;28;20490;-81
2022/02/18 12:23:28;;;;;;;1.70;0.70;;;;;;;;;;5080608;28;20977;-80
2022/02/18 12:26:14;;;;;;;2.33;0.93;;;;;;;;;;5081060;28;20880;-80
2022/02/18 12:28:51;;;;;;;3.73;1.07;;;;;;;;;;5081913;28;20455;-80
2022/02/18 12:31:25;;;;;;;2.10;0.93;;;;;;;;;;5079810;28;20837;-78
2022/02/18 12:33:58;;;;;;;2.77;0.90;;;;;;;;;;5079027;28;20474;-79
2022/02/18 12:36:26;;;;;;;1.63;0.70;;;;;;;;;;5081132;28;21009;-79
2022/02/18 12:38:53;;;;;;;3.50;0.70;;;;;;;;;;5085917;28;20451;-80
2022/02/18 12:41:22;;;;;;;3.70;1.10;;;;;;;;;;5082550;28;20546;-81
2022/02/18 12:43:49;;;;;;;1.60;0.80;;;;;;;;;;5078934;28;20514;-81
2022/02/18 12:46:23;;;;;;;2.00;0.80;;;;;;;;;;5079070;28;20522;-79
2022/02/18 12:48:51;;;;;;;3.67;0.70;;;;;;;;;;5079740;28;20854;-79
2022/02/18 12:51:22;;;;;;;3.80;1.00;;;;;;;;;;5079671;28;20479;-79
2022/02/18 12:53:50;;;;;;;1.70;0.70;;;;;;;;;;5080395;28;20455;-79
2022/02/18 12:56:18;;;;;;;1.50;0.63;;;;;;;;;;5080478;28;20475;-79
2022/02/18 12:58:59;;;;;;;1.70;0.80;;;;;;;;;;5081807;28;20451;-79
2022/02/18 13:01:27;;;;;;;1.60;0.70;;;;;;;;;;5079428;28;20448;-78
2022/02/18 13:03:56;;;;;;;1.60;0.60;;;;;;;;;;5077968;28;20904;-80
2022/02/18 13:06:23;;;;;;;3.00;0.70;;;;;;;;;;5086923;28;20935;-79
2022/02/18 13:08:50;;;;;;;7.03;0.80;;;;;;;;;;5090458;28;20457;-79
2022/02/18 13:11:18;;;;;;;1.50;0.70;;;;;;;;;;5081731;28;20470;-80
2022/02/18 13:13:46;;;;;;;1.67;0.63;;;;;;;;;;5082813;28;20532;-80
2022/02/18 13:16:17;;;;;;;1.97;0.60;;;;;;;;;;5084637;28;20500;-79
2022/02/18 13:18:48;;;;;;;1.60;0.60;;;;;;;;;;5082823;28;20463;-81
2022/02/18 13:21:17;;;;;;;1.70;0.70;;;;;;;;;;5082316;28;20459;-82
2022/02/18 13:23:48;;;;;;;1.40;0.60;;;;;;;;;;5082813;28;20546;-81
2022/02/18 13:26:15;;;;;;;1.60;0.77;;;;;;;;;;5084080;28;20487;-78
2022/02/18 13:28:45;;;;;;;1.60;0.60;;;;;;;;;;5086603;28;20953;-79
2022/02/18 13:31:14;;;;;;;1.60;0.70;;;;;;;;;;5082708;28;20463;-78
2022/02/18 13:33:43;;;;;;;1.50;0.60;;;;;;;;;;5082000;28;20477;-79
2022/02/18 13:36:14;;;;;;;4.10;2.37;;;;;;;;;;5082049;28;21055;-81
2022/02/18 13:38:43;;;;;;;1.70;0.70;;;;;;;;;;5083507;28;20454;-81
2022/02/18 13:41:12;;;;;;;1.80;0.70;;;;;;;;;;5080198;28;20499;-80
2022/02/18 13:43:39;;;;;;;3.80;0.70;;;;;;;;;;5086463;28;20523;-81
2022/02/18 13:46:27;;;;;;;1.60;0.80;;;;;;;;;;5085034;28;21063;-81
2022/02/18 13:48:54;;;;;;;1.80;0.70;;;;;;;;;;5079480;28;20566;-80
2022/02/18 13:51:28;;;;;;;1.70;0.70;;;;;;;;;;5081142;28;20455;-80
2022/02/18 13:54:10;;;;;;;1.70;1.00;;;;;;;;;;5079340;28;20450;-80
2022/02/18 13:56:49;;;;;;;2.23;0.70;;;;;;;;;;5074949;28;20540;-81
2022/02/18 13:59:17;;;;;;;1.80;0.73;;;;;;;;;;5078426;28;20443;-80
2022/02/18 14:01:45;;;;;;;3.80;0.70;;;;;;;;;;5076102;28;20500;-82
2022/02/18 14:04:19;;;;;;;1.70;0.70;;;;;;;;;;5075949;28;20463;-80
2022/02/18 14:06:46;;;;;;;2.63;0.73;;;;;;;;;;5075393;28;20490;-82
2022/02/18 14:09:14;;;;;;;1.50;0.80;;;;;;;;;;5076310;28;20462;-80
2022/02/18 14:11:49;;;;;;;1.67;0.70;;;;;;;;;;5075929;28;20961;-80
2022/02/18 14:14:17;;;;;;;2.80;0.70;;;;;;;;;;5076459;28;20421;-80
2022/02/18 14:16:52;;;;;;;1.43;0.60;;;;;;;;;;5074829;28;20494;-81
2022/02/18 14:19:19;;;;;;;1.50;0.60;;;;;;;;;;5073513;28;20472;-80
2022/02/18 14:21:57;;;;;;;2.23;0.80;;;;;;;;;;5074308;28;20974;-76
2022/02/18 14:24:30;;;;;;;1.40;0.57;;;;;;;;;;5078996;28;20455;-78
2022/02/18 14:26:59;;;;;;;2.07;0.77;;;;;;;;;;5080745;28;20499;-80
2022/02/18 14:29:26;;;;;;;1.60;0.80;;;;;;;;;;5087328;28;20545;-84
2022/02/18 14:31:55;;;;;;;3.00;0.67;;;;;;;;;;5078713;28;20476;-81
2022/02/18 14:34:23;;;;;;;3.00;0.70;;;;;;;;;;5079868;28;20810;-83
2022/02/18 14:36:50;;;;;;;1.97;0.80;;;;;;;;;;5076922;28;20486;-83
2022/02/18 14:39:20;;;;;;;3.70;0.90;;;;;;;;;;5073986;28;20512;-82
2022/02/18 14:42:02;;;;;;;3.30;0.90;;;;;;;;;;5078498;28;20500;-84
2022/02/18 14:44:48;;;;;;;4.17;1.03;;;;;;;;;;5077326;28;20507;-84
2022/02/18 14:47:15;;;;;;;2.20;1.10;;;;;;;;;;5079814;28;20496;-84